sensor_id;sensor_type;location;lat;lon;timestamp;temperature;humidity
14755;DHT22;7469;50.906;6.952;2023-04-24T00:00:57;12.20;99.90
14755;DHT22;7469;50.906;6.952;2023-04-24T00:03:26;12.30;99.90
14755;DHT22;7469;50.906;6.952;2023-04-24T00:05:56;12.30;99.90
14755;DHT22;7469;50.906;6.952;2023-04-24T00:08:25;12.20;99.90
14755;DHT22;7469;50.906;6.952;2023-04-24T00:10:54;12.20;99.90
14755;DHT22;7469;50.906;6.952;2023-04-24T00:13:21;12.20;99.90
14755;DHT22;7469;50.906;6.952;2023-04-24T00:15:51;12.20;99.90
14755;DHT22;7469;50.906;6.952;2023-04-24T00:18:19;12.20;99.90
14755;DHT22;7469;50.906;6.952;2023-04-24T00:20:47;12.20;99.90
14755;DHT22;7469;50.906;6.952;2023-04-24T00:23:15;12.10;99.90
14755;DHT22;7469;50.906;6.952;2023-04-24T00:25:43;12.20;99.90
14755;DHT22;7469;50.906;6.952;2023-04-24T00:28:11;12.20;99.90
14755;DHT22;7469;50.906;6.952;2023-04-24T00:30:39;12.10;99.90
14755;DHT22;7469;50.906;6.952;2023-04-24T00:33:09;12.10;99.90
14755;DHT22;7469;50.906;6.952;2023-04-24T00:35:37;12.10;99.90
14755;DHT22;7469;50.906;6.952;2023-04-24T00:38:05;12.10;99.90
14755;DHT22;7469;50.906;6.952;2023-04-24T00:40:32;12.10;99.90
14755;DHT22;7469;50.906;6.952;2023-04-24T00:43:01;12.10;99.90
14755;DHT22;7469;50.906;6.952;2023-04-24T00:45:29;12.10;99.90
14755;DHT22;7469;50.906;6.952;2023-04-24T00:47:58;12.10;99.90
14755;DHT22;7469;50.906;6.952;2023-04-24T00:50:27;12.10;99.90
14755;DHT22;7469;50.906;6.952;2023-04-24T00:52:56;12.10;99.90
14755;DHT22;7469;50.906;6.952;2023-04-24T00:55:24;12.10;99.90
14755;DHT22;7469;50.906;6.952;2023-04-24T00:57:53;12.10;99.90
14755;DHT22;7469;50.906;6.952;2023-04-24T01:00:21;12.10;99.90
14755;DHT22;7469;50.906;6.952;2023-04-24T01:02:49;12.20;99.90
14755;DHT22;7469;50.906;6.952;2023-04-24T01:05:21;12.10;99.90
14755;DHT22;7469;50.906;6.952;2023-04-24T01:07:50;12.10;99.90
14755;DHT22;7469;50.906;6.952;2023-04-24T01:10:19;12.10;99.90
14755;DHT22;7469;50.906;6.952;2023-04-24T01:12:46;12.10;99.90
14755;DHT22;7469;50.906;6.952;2023-04-24T01:15:14;12.10;99.90
14755;DHT22;7469;50.906;6.952;2023-04-24T01:17:43;12.10;99.90
14755;DHT22;7469;50.906;6.952;2023-04-24T01:20:12;12.10;99.90
14755;DHT22;7469;50.906;6.952;2023-04-24T01:22:42;12.20;99.90
14755;DHT22;7469;50.906;6.952;2023-04-24T01:25:09;12.10;99.90
14755;DHT22;7469;50.906;6.952;2023-04-24T01:27:37;12.10;99.90
14755;DHT22;7469;50.906;6.952;2023-04-24T01:30:07;12.10;99.90
14755;DHT22;7469;50.906;6.952;2023-04-24T01:32:36;12.10;99.90
14755;DHT22;7469;50.906;6.952;2023-04-24T01:35:06;12.10;99.90
14755;DHT22;7469;50.906;6.952;2023-04-24T01:37:34;12.00;99.90
14755;DHT22;7469;50.906;6.952;2023-04-24T01:40:07;12.00;99.90
14755;DHT22;7469;50.906;6.952;2023-04-24T01:42:35;11.90;99.90
14755;DHT22;7469;50.906;6.952;2023-04-24T01:45:04;12.00;99.90
14755;DHT22;7469;50.906;6.952;2023-04-24T01:47:33;11.90;99.90
14755;DHT22;7469;50.906;6.952;2023-04-24T01:50:01;11.90;99.90
14755;DHT22;7469;50.906;6.952;2023-04-24T01:52:29;11.90;99.90
14755;DHT22;7469;50.906;6.952;2023-04-24T01:54:59;11.90;99.90
14755;DHT22;7469;50.906;6.952;2023-04-24T01:57:30;11.80;99.90
14755;DHT22;7469;50.906;6.952;2023-04-24T01:59:58;11.80;99.90
14755;DHT22;7469;50.906;6.952;2023-04-24T02:02:26;11.70;99.90
14755;DHT22;7469;50.906;6.952;2023-04-24T02:04:55;11.70;99.90
14755;DHT22;7469;50.906;6.952;2023-04-24T02:07:23;11.60;99.90
14755;DHT22;7469;50.906;6.952;2023-04-24T02:09:51;11.50;99.90
14755;DHT22;7469;50.906;6.952;2023-04-24T02:12:19;11.50;99.90
14755;DHT22;7469;50.906;6.952;2023-04-24T02:14:48;11.40;99.90
14755;DHT22;7469;50.906;6.952;2023-04-24T02:17:16;11.30;99.90
14755;DHT22;7469;50.906;6.952;2023-04-24T02:19:45;11.30;99.90
14755;DHT22;7469;50.906;6.952;2023-04-24T02:22:13;11.20;99.90
14755;DHT22;7469;50.906;6.952;2023-04-24T02:24:41;11.10;99.90
14755;DHT22;7469;50.906;6.952;2023-04-24T02:27:11;11.00;99.90
14755;DHT22;7469;50.906;6.952;2023-04-24T02:29:41;10.90;99.90
14755;DHT22;7469;50.906;6.952;2023-04-24T02:32:11;10.80;99.90
14755;DHT22;7469;50.906;6.952;2023-04-24T02:34:39;10.80;99.90
14755;DHT22;7469;50.906;6.952;2023-04-24T02:37:07;10.70;99.90
14755;DHT22;7469;50.906;6.952;2023-04-24T02:39:35;10.70;99.90
14755;DHT22;7469;50.906;6.952;2023-04-24T02:42:06;10.60;99.90
14755;DHT22;7469;50.906;6.952;2023-04-24T02:44:34;10.60;99.90
14755;DHT22;7469;50.906;6.952;2023-04-24T02:47:02;10.50;99.90
14755;DHT22;7469;50.906;6.952;2023-04-24T02:49:32;10.50;99.90
14755;DHT22;7469;50.906;6.952;2023-04-24T02:52:00;10.40;99.90
14755;DHT22;7469;50.906;6.952;2023-04-24T02:54:27;10.40;99.90
14755;DHT22;7469;50.906;6.952;2023-04-24T02:56:55;10.40;99.90
14755;DHT22;7469;50.906;6.952;2023-04-24T02:59:24;10.40;99.90
14755;DHT22;7469;50.906;6.952;2023-04-24T03:01:53;10.40;99.90
14755;DHT22;7469;50.906;6.952;2023-04-24T03:04:21;10.40;99.90
14755;DHT22;7469;50.906;6.952;2023-04-24T03:06:51;10.40;99.90
14755;DHT22;7469;50.906;6.952;2023-04-24T03:09:19;10.40;99.90
14755;DHT22;7469;50.906;6.952;2023-04-24T03:11:47;10.40;99.90
14755;DHT22;7469;50.906;6.952;2023-04-24T03:14:15;10.40;99.90
14755;DHT22;7469;50.906;6.952;2023-04-24T03:16:43;10.40;99.90
14755;DHT22;7469;50.906;6.952;2023-04-24T03:19:11;10.40;99.90
14755;DHT22;7469;50.906;6.952;2023-04-24T03:21:39;10.30;99.90
14755;DHT22;7469;50.906;6.952;2023-04-24T03:24:10;10.30;99.90
14755;DHT22;7469;50.906;6.952;2023-04-24T03:26:37;10.20;99.90
14755;DHT22;7469;50.906;6.952;2023-04-24T03:29:05;10.10;99.90
14755;DHT22;7469;50.906;6.952;2023-04-24T03:31:33;10.10;99.90
14755;DHT22;7469;50.906;6.952;2023-04-24T03:34:01;10.00;99.90
14755;DHT22;7469;50.906;6.952;2023-04-24T03:36:29;10.00;99.90
14755;DHT22;7469;50.906;6.952;2023-04-24T03:38:58;9.90;99.90
14755;DHT22;7469;50.906;6.952;2023-04-24T03:41:27;9.80;99.90
14755;DHT22;7469;50.906;6.952;2023-04-24T03:43:55;9.80;99.90
14755;DHT22;7469;50.906;6.952;2023-04-24T03:46:23;9.70;99.90
14755;DHT22;7469;50.906;6.952;2023-04-24T03:48:51;9.70;99.90
14755;DHT22;7469;50.906;6.952;2023-04-24T03:51:19;9.70;99.90
14755;DHT22;7469;50.906;6.952;2023-04-24T03:53:47;9.60;99.90
14755;DHT22;7469;50.906;6.952;2023-04-24T03:56:15;9.60;99.90
14755;DHT22;7469;50.906;6.952;2023-04-24T03:58:44;9.60;99.90
14755;DHT22;7469;50.906;6.952;2023-04-24T04:01:12;9.50;99.90
14755;DHT22;7469;50.906;6.952;2023-04-24T04:03:42;9.50;99.90
14755;DHT22;7469;50.906;6.952;2023-04-24T04:06:10;9.60;99.90
14755;DHT22;7469;50.906;6.952;2023-04-24T04:08:39;9.60;99.90
14755;DHT22;7469;50.906;6.952;2023-04-24T04:11:07;9.60;99.90
14755;DHT22;7469;50.906;6.952;2023-04-24T04:13:35;9.60;99.90
14755;DHT22;7469;50.906;6.952;2023-04-24T04:16:05;9.70;99.90
14755;DHT22;7469;50.906;6.952;2023-04-24T04:18:33;9.60;99.90
14755;DHT22;7469;50.906;6.952;2023-04-24T04:21:01;9.70;99.90
14755;DHT22;7469;50.906;6.952;2023-04-24T04:23:29;9.70;99.90
14755;DHT22;7469;50.906;6.952;2023-04-24T04:25:58;9.70;99.90
14755;DHT22;7469;50.906;6.952;2023-04-24T04:28:26;9.70;99.90
14755;DHT22;7469;50.906;6.952;2023-04-24T04:30:54;9.70;99.90
14755;DHT22;7469;50.906;6.952;2023-04-24T04:33:25;9.70;99.90
14755;DHT22;7469;50.906;6.952;2023-04-24T04:35:53;9.80;99.90
14755;DHT22;7469;50.906;6.952;2023-04-24T04:38:23;9.70;99.90
14755;DHT22;7469;50.906;6.952;2023-04-24T04:40:53;9.80;99.90
14755;DHT22;7469;50.906;6.952;2023-04-24T04:43:23;9.80;99.90
14755;DHT22;7469;50.906;6.952;2023-04-24T04:45:51;9.80;99.90
14755;DHT22;7469;50.906;6.952;2023-04-24T04:48:21;9.80;99.90
14755;DHT22;7469;50.906;6.952;2023-04-24T04:50:50;9.80;99.90
14755;DHT22;7469;50.906;6.952;2023-04-24T04:53:20;9.80;99.90
14755;DHT22;7469;50.906;6.952;2023-04-24T04:55:48;9.90;99.90
14755;DHT22;7469;50.906;6.952;2023-04-24T04:58:16;9.90;99.90
14755;DHT22;7469;50.906;6.952;2023-04-24T05:00:44;9.90;99.90
14755;DHT22;7469;50.906;6.952;2023-04-24T05:03:12;9.90;99.90
14755;DHT22;7469;50.906;6.952;2023-04-24T05:05:43;10.00;99.90
14755;DHT22;7469;50.906;6.952;2023-04-24T05:08:12;10.00;99.90
14755;DHT22;7469;50.906;6.952;2023-04-24T05:10:43;10.00;99.90
14755;DHT22;7469;50.906;6.952;2023-04-24T05:13:11;10.10;99.90
14755;DHT22;7469;50.906;6.952;2023-04-24T05:15:39;10.10;99.90
14755;DHT22;7469;50.906;6.952;2023-04-24T05:18:07;10.10;99.90
14755;DHT22;7469;50.906;6.952;2023-04-24T05:20:35;10.10;99.90
14755;DHT22;7469;50.906;6.952;2023-04-24T05:23:03;10.10;99.90
14755;DHT22;7469;50.906;6.952;2023-04-24T05:25:33;10.10;99.90
14755;DHT22;7469;50.906;6.952;2023-04-24T05:28:01;10.10;99.90
14755;DHT22;7469;50.906;6.952;2023-04-24T05:30:29;10.10;99.90
14755;DHT22;7469;50.906;6.952;2023-04-24T05:32:57;10.20;99.90
14755;DHT22;7469;50.906;6.952;2023-04-24T05:35:28;10.20;99.90
14755;DHT22;7469;50.906;6.952;2023-04-24T05:37:56;10.20;99.90
14755;DHT22;7469;50.906;6.952;2023-04-24T05:40:24;10.20;99.90
14755;DHT22;7469;50.906;6.952;2023-04-24T05:42:53;10.20;99.90
14755;DHT22;7469;50.906;6.952;2023-04-24T05:45:21;10.20;99.90
14755;DHT22;7469;50.906;6.952;2023-04-24T05:47:49;10.20;99.90
14755;DHT22;7469;50.906;6.952;2023-04-24T05:50:19;10.20;99.90
14755;DHT22;7469;50.906;6.952;2023-04-24T05:52:47;10.20;99.90
14755;DHT22;7469;50.906;6.952;2023-04-24T05:55:15;10.20;99.90
14755;DHT22;7469;50.906;6.952;2023-04-24T05:57:45;10.20;99.90
14755;DHT22;7469;50.906;6.952;2023-04-24T06:00:15;10.20;99.90
14755;DHT22;7469;50.906;6.952;2023-04-24T06:02:45;10.20;99.90
14755;DHT22;7469;50.906;6.952;2023-04-24T06:05:14;10.20;99.90
14755;DHT22;7469;50.906;6.952;2023-04-24T06:07:42;10.30;99.90
14755;DHT22;7469;50.906;6.952;2023-04-24T06:10:10;10.30;99.90
14755;DHT22;7469;50.906;6.952;2023-04-24T06:12:38;10.30;99.90
14755;DHT22;7469;50.906;6.952;2023-04-24T06:15:07;10.30;99.90
14755;DHT22;7469;50.906;6.952;2023-04-24T06:17:36;10.30;99.90
14755;DHT22;7469;50.906;6.952;2023-04-24T06:20:05;10.40;99.90
14755;DHT22;7469;50.906;6.952;2023-04-24T06:22:34;10.40;99.90
14755;DHT22;7469;50.906;6.952;2023-04-24T06:25:03;10.40;99.90
14755;DHT22;7469;50.906;6.952;2023-04-24T06:27:31;10.30;99.90
14755;DHT22;7469;50.906;6.952;2023-04-24T06:29:59;10.30;99.90
14755;DHT22;7469;50.906;6.952;2023-04-24T06:32:27;10.40;99.90
14755;DHT22;7469;50.906;6.952;2023-04-24T06:34:56;10.30;99.90
14755;DHT22;7469;50.906;6.952;2023-04-24T06:37:25;10.30;99.90
14755;DHT22;7469;50.906;6.952;2023-04-24T06:39:53;10.20;99.90
14755;DHT22;7469;50.906;6.952;2023-04-24T06:42:21;10.20;99.90
14755;DHT22;7469;50.906;6.952;2023-04-24T06:44:51;10.20;99.90
14755;DHT22;7469;50.906;6.952;2023-04-24T06:47:19;10.10;99.90
14755;DHT22;7469;50.906;6.952;2023-04-24T06:49:47;10.10;99.90
14755;DHT22;7469;50.906;6.952;2023-04-24T06:52:16;10.10;99.90
14755;DHT22;7469;50.906;6.952;2023-04-24T06:54:44;10.00;99.90
14755;DHT22;7469;50.906;6.952;2023-04-24T06:57:12;10.00;99.90
14755;DHT22;7469;50.906;6.952;2023-04-24T06:59:40;10.00;99.90
14755;DHT22;7469;50.906;6.952;2023-04-24T07:02:08;10.00;99.90
14755;DHT22;7469;50.906;6.952;2023-04-24T07:04:37;10.00;99.90
14755;DHT22;7469;50.906;6.952;2023-04-24T07:07:05;10.00;99.90
14755;DHT22;7469;50.906;6.952;2023-04-24T07:09:35;9.90;99.90
14755;DHT22;7469;50.906;6.952;2023-04-24T07:12:06;9.90;99.90
14755;DHT22;7469;50.906;6.952;2023-04-24T07:14:34;9.90;99.90
14755;DHT22;7469;50.906;6.952;2023-04-24T07:17:02;9.80;99.90
14755;DHT22;7469;50.906;6.952;2023-04-24T07:19:30;9.80;99.90
14755;DHT22;7469;50.906;6.952;2023-04-24T07:21:58;9.80;99.90
14755;DHT22;7469;50.906;6.952;2023-04-24T07:24:26;9.80;99.90
14755;DHT22;7469;50.906;6.952;2023-04-24T07:26:58;9.70;99.90
14755;DHT22;7469;50.906;6.952;2023-04-24T07:29:27;9.70;99.90
14755;DHT22;7469;50.906;6.952;2023-04-24T07:31:55;9.70;99.90
14755;DHT22;7469;50.906;6.952;2023-04-24T07:34:23;9.70;99.90
14755;DHT22;7469;50.906;6.952;2023-04-24T07:36:52;9.70;99.90
14755;DHT22;7469;50.906;6.952;2023-04-24T07:39:20;9.80;99.90
14755;DHT22;7469;50.906;6.952;2023-04-24T07:41:48;9.70;99.90
14755;DHT22;7469;50.906;6.952;2023-04-24T07:44:17;9.70;99.90
14755;DHT22;7469;50.906;6.952;2023-04-24T07:46:45;9.70;99.90
14755;DHT22;7469;50.906;6.952;2023-04-24T07:49:13;9.70;99.90
14755;DHT22;7469;50.906;6.952;2023-04-24T07:51:45;9.70;99.90
14755;DHT22;7469;50.906;6.952;2023-04-24T07:54:13;9.70;99.90
14755;DHT22;7469;50.906;6.952;2023-04-24T07:56:41;9.60;99.90
14755;DHT22;7469;50.906;6.952;2023-04-24T07:59:10;9.60;99.90
14755;DHT22;7469;50.906;6.952;2023-04-24T08:01:39;9.50;99.90
14755;DHT22;7469;50.906;6.952;2023-04-24T08:04:09;9.50;99.90
14755;DHT22;7469;50.906;6.952;2023-04-24T08:06:37;9.40;99.90
14755;DHT22;7469;50.906;6.952;2023-04-24T08:09:05;9.30;99.90
14755;DHT22;7469;50.906;6.952;2023-04-24T08:11:33;9.30;99.90
14755;DHT22;7469;50.906;6.952;2023-04-24T08:14:01;9.20;99.90
14755;DHT22;7469;50.906;6.952;2023-04-24T08:16:29;9.20;99.90
14755;DHT22;7469;50.906;6.952;2023-04-24T08:18:59;9.10;99.90
14755;DHT22;7469;50.906;6.952;2023-04-24T08:21:27;9.00;99.90
14755;DHT22;7469;50.906;6.952;2023-04-24T08:23:55;9.00;99.90
14755;DHT22;7469;50.906;6.952;2023-04-24T08:26:22;9.00;99.90
14755;DHT22;7469;50.906;6.952;2023-04-24T08:28:51;8.90;99.90
14755;DHT22;7469;50.906;6.952;2023-04-24T08:31:19;8.80;99.90
14755;DHT22;7469;50.906;6.952;2023-04-24T08:33:47;8.70;99.90
14755;DHT22;7469;50.906;6.952;2023-04-24T08:36:16;8.70;99.90
14755;DHT22;7469;50.906;6.952;2023-04-24T08:38:44;8.60;99.90
14755;DHT22;7469;50.906;6.952;2023-04-24T08:41:14;8.60;99.90
14755;DHT22;7469;50.906;6.952;2023-04-24T08:43:42;8.50;99.90
14755;DHT22;7469;50.906;6.952;2023-04-24T08:46:10;8.40;99.90
14755;DHT22;7469;50.906;6.952;2023-04-24T08:48:40;8.40;99.90
14755;DHT22;7469;50.906;6.952;2023-04-24T08:51:08;8.40;99.90
14755;DHT22;7469;50.906;6.952;2023-04-24T08:53:39;8.40;99.90
14755;DHT22;7469;50.906;6.952;2023-04-24T08:56:07;8.30;99.90
14755;DHT22;7469;50.906;6.952;2023-04-24T08:58:36;8.30;99.90
14755;DHT22;7469;50.906;6.952;2023-04-24T09:01:04;8.30;99.90
14755;DHT22;7469;50.906;6.952;2023-04-24T09:03:33;8.30;99.90
14755;DHT22;7469;50.906;6.952;2023-04-24T09:06:02;8.30;99.90
14755;DHT22;7469;50.906;6.952;2023-04-24T09:08:33;8.30;99.90
14755;DHT22;7469;50.906;6.952;2023-04-24T09:11:05;8.30;99.90
14755;DHT22;7469;50.906;6.952;2023-04-24T09:13:33;8.30;99.90
14755;DHT22;7469;50.906;6.952;2023-04-24T09:16:02;8.30;99.90
14755;DHT22;7469;50.906;6.952;2023-04-24T09:18:30;8.30;99.90
14755;DHT22;7469;50.906;6.952;2023-04-24T09:20:58;8.30;99.90
14755;DHT22;7469;50.906;6.952;2023-04-24T09:23:28;8.40;99.90
14755;DHT22;7469;50.906;6.952;2023-04-24T09:25:57;8.40;99.90
14755;DHT22;7469;50.906;6.952;2023-04-24T09:28:30;8.50;99.90
14755;DHT22;7469;50.906;6.952;2023-04-24T09:31:07;8.60;99.90
14755;DHT22;7469;50.906;6.952;2023-04-24T09:33:35;8.70;99.90
14755;DHT22;7469;50.906;6.952;2023-04-24T09:36:04;8.80;99.90
14755;DHT22;7469;50.906;6.952;2023-04-24T09:38:34;8.90;99.90
14755;DHT22;7469;50.906;6.952;2023-04-24T09:41:04;9.00;99.90
14755;DHT22;7469;50.906;6.952;2023-04-24T09:43:35;9.10;99.90
14755;DHT22;7469;50.906;6.952;2023-04-24T09:46:07;9.10;99.90
14755;DHT22;7469;50.906;6.952;2023-04-24T09:48:37;9.20;99.90
14755;DHT22;7469;50.906;6.952;2023-04-24T09:51:06;9.20;99.90
14755;DHT22;7469;50.906;6.952;2023-04-24T09:53:37;9.40;99.90
14755;DHT22;7469;50.906;6.952;2023-04-24T09:56:07;9.50;99.90
14755;DHT22;7469;50.906;6.952;2023-04-24T09:58:37;9.70;99.90
14755;DHT22;7469;50.906;6.952;2023-04-24T10:01:05;9.80;99.90
14755;DHT22;7469;50.906;6.952;2023-04-24T10:03:33;10.00;99.90
14755;DHT22;7469;50.906;6.952;2023-04-24T10:06:02;10.10;99.90
14755;DHT22;7469;50.906;6.952;2023-04-24T10:08:36;10.30;99.90
14755;DHT22;7469;50.906;6.952;2023-04-24T10:11:04;10.40;99.90
14755;DHT22;7469;50.906;6.952;2023-04-24T10:13:33;10.50;99.90
14755;DHT22;7469;50.906;6.952;2023-04-24T10:16:04;10.70;99.90
14755;DHT22;7469;50.906;6.952;2023-04-24T10:18:33;10.70;99.90
14755;DHT22;7469;50.906;6.952;2023-04-24T10:21:03;10.80;99.90
14755;DHT22;7469;50.906;6.952;2023-04-24T10:23:32;10.90;99.90
14755;DHT22;7469;50.906;6.952;2023-04-24T10:26:00;11.00;99.90
14755;DHT22;7469;50.906;6.952;2023-04-24T10:28:30;11.10;99.90
14755;DHT22;7469;50.906;6.952;2023-04-24T10:31:00;11.10;99.90
14755;DHT22;7469;50.906;6.952;2023-04-24T10:33:30;11.20;99.90
14755;DHT22;7469;50.906;6.952;2023-04-24T10:35:59;11.30;99.90
14755;DHT22;7469;50.906;6.952;2023-04-24T10:38:29;11.30;99.90
14755;DHT22;7469;50.906;6.952;2023-04-24T10:41:07;11.40;99.90
14755;DHT22;7469;50.906;6.952;2023-04-24T10:43:36;11.50;99.90
14755;DHT22;7469;50.906;6.952;2023-04-24T10:46:05;11.60;99.90
14755;DHT22;7469;50.906;6.952;2023-04-24T10:48:36;11.70;99.90
14755;DHT22;7469;50.906;6.952;2023-04-24T10:51:11;11.80;99.90
14755;DHT22;7469;50.906;6.952;2023-04-24T10:53:39;12.00;99.90
14755;DHT22;7469;50.906;6.952;2023-04-24T10:56:08;12.10;99.90
14755;DHT22;7469;50.906;6.952;2023-04-24T10:58:39;12.20;99.90
14755;DHT22;7469;50.906;6.952;2023-04-24T11:01:07;12.30;99.90
14755;DHT22;7469;50.906;6.952;2023-04-24T11:03:36;12.50;99.90
14755;DHT22;7469;50.906;6.952;2023-04-24T11:06:09;12.60;99.90
14755;DHT22;7469;50.906;6.952;2023-04-24T11:08:39;12.70;99.90
14755;DHT22;7469;50.906;6.952;2023-04-24T11:11:11;12.70;99.90
14755;DHT22;7469;50.906;6.952;2023-04-24T11:14:02;12.60;99.90
14755;DHT22;7469;50.906;6.952;2023-04-24T11:16:33;12.50;99.90
14755;DHT22;7469;50.906;6.952;2023-04-24T11:19:05;12.50;99.90
14755;DHT22;7469;50.906;6.952;2023-04-24T11:21:40;12.50;99.90
14755;DHT22;7469;50.906;6.952;2023-04-24T11:24:33;12.50;99.90
14755;DHT22;7469;50.906;6.952;2023-04-24T11:27:12;12.60;99.90
14755;DHT22;7469;50.906;6.952;2023-04-24T11:29:43;12.60;99.90
14755;DHT22;7469;50.906;6.952;2023-04-24T11:32:19;12.50;99.90
14755;DHT22;7469;50.906;6.952;2023-04-24T11:34:53;12.50;99.90
14755;DHT22;7469;50.906;6.952;2023-04-24T11:37:22;12.50;99.90
14755;DHT22;7469;50.906;6.952;2023-04-24T11:39:56;12.40;99.90
14755;DHT22;7469;50.906;6.952;2023-04-24T11:42:25;12.30;99.90
14755;DHT22;7469;50.906;6.952;2023-04-24T11:44:54;12.30;99.90
14755;DHT22;7469;50.906;6.952;2023-04-24T11:47:30;12.30;99.90
14755;DHT22;7469;50.906;6.952;2023-04-24T11:50:02;12.30;99.90
14755;DHT22;7469;50.906;6.952;2023-04-24T11:52:31;12.50;99.90
14755;DHT22;7469;50.906;6.952;2023-04-24T11:54:59;12.70;99.90
14755;DHT22;7469;50.906;6.952;2023-04-24T11:57:28;12.90;99.90
14755;DHT22;7469;50.906;6.952;2023-04-24T12:00:00;13.20;99.90
14755;DHT22;7469;50.906;6.952;2023-04-24T12:02:31;13.40;99.90
14755;DHT22;7469;50.906;6.952;2023-04-24T12:05:00;13.60;99.90
14755;DHT22;7469;50.906;6.952;2023-04-24T12:07:29;13.90;99.90
14755;DHT22;7469;50.906;6.952;2023-04-24T12:09:59;14.20;99.90
14755;DHT22;7469;50.906;6.952;2023-04-24T12:12:28;14.40;99.90
14755;DHT22;7469;50.906;6.952;2023-04-24T12:14:57;14.50;99.90
14755;DHT22;7469;50.906;6.952;2023-04-24T12:17:27;14.60;99.90
14755;DHT22;7469;50.906;6.952;2023-04-24T12:20:01;14.60;99.90
14755;DHT22;7469;50.906;6.952;2023-04-24T12:22:43;14.50;99.90
14755;DHT22;7469;50.906;6.952;2023-04-24T12:25:12;14.40;99.90
14755;DHT22;7469;50.906;6.952;2023-04-24T12:27:40;14.20;99.90
14755;DHT22;7469;50.906;6.952;2023-04-24T12:30:11;14.10;99.90
14755;DHT22;7469;50.906;6.952;2023-04-24T12:32:41;13.90;99.90
14755;DHT22;7469;50.906;6.952;2023-04-24T12:35:11;13.70;99.90
14755;DHT22;7469;50.906;6.952;2023-04-24T12:37:42;13.60;99.90
14755;DHT22;7469;50.906;6.952;2023-04-24T12:40:15;13.50;99.90
14755;DHT22;7469;50.906;6.952;2023-04-24T12:42:45;13.50;99.90
14755;DHT22;7469;50.906;6.952;2023-04-24T12:45:14;13.70;99.90
14755;DHT22;7469;50.906;6.952;2023-04-24T12:47:45;14.00;99.90
14755;DHT22;7469;50.906;6.952;2023-04-24T12:50:15;14.30;99.90
14755;DHT22;7469;50.906;6.952;2023-04-24T12:52:44;14.50;99.90
14755;DHT22;7469;50.906;6.952;2023-04-24T12:55:12;14.70;99.90
14755;DHT22;7469;50.906;6.952;2023-04-24T12:57:40;14.80;99.90
14755;DHT22;7469;50.906;6.952;2023-04-24T13:00:08;14.90;99.90
14755;DHT22;7469;50.906;6.952;2023-04-24T13:02:36;14.90;99.90
14755;DHT22;7469;50.906;6.952;2023-04-24T13:05:05;14.90;99.90
14755;DHT22;7469;50.906;6.952;2023-04-24T13:07:35;14.90;99.90
14755;DHT22;7469;50.906;6.952;2023-04-24T13:10:03;14.90;99.90
14755;DHT22;7469;50.906;6.952;2023-04-24T13:12:31;15.00;99.90
14755;DHT22;7469;50.906;6.952;2023-04-24T13:14:59;15.20;99.90
14755;DHT22;7469;50.906;6.952;2023-04-24T13:17:27;15.30;99.90
14755;DHT22;7469;50.906;6.952;2023-04-24T13:19:55;15.50;99.90
14755;DHT22;7469;50.906;6.952;2023-04-24T13:22:23;15.50;99.90
14755;DHT22;7469;50.906;6.952;2023-04-24T13:24:53;15.70;99.90
14755;DHT22;7469;50.906;6.952;2023-04-24T13:27:21;15.90;99.90
14755;DHT22;7469;50.906;6.952;2023-04-24T13:29:49;15.80;99.90
14755;DHT22;7469;50.906;6.952;2023-04-24T13:32:17;15.70;99.90
14755;DHT22;7469;50.906;6.952;2023-04-24T13:34:46;15.60;99.90
14755;DHT22;7469;50.906;6.952;2023-04-24T13:37:14;15.60;99.90
14755;DHT22;7469;50.906;6.952;2023-04-24T13:39:42;15.60;99.90
14755;DHT22;7469;50.906;6.952;2023-04-24T13:42:11;15.60;99.90
14755;DHT22;7469;50.906;6.952;2023-04-24T13:44:41;15.60;99.90
14755;DHT22;7469;50.906;6.952;2023-04-24T13:47:09;15.80;99.90
14755;DHT22;7469;50.906;6.952;2023-04-24T13:49:45;15.90;99.90
14755;DHT22;7469;50.906;6.952;2023-04-24T13:52:13;15.90;99.90
14755;DHT22;7469;50.906;6.952;2023-04-24T13:54:41;15.90;99.90
14755;DHT22;7469;50.906;6.952;2023-04-24T13:57:10;15.70;99.90
14755;DHT22;7469;50.906;6.952;2023-04-24T13:59:38;15.60;99.90
14755;DHT22;7469;50.906;6.952;2023-04-24T14:02:06;15.40;99.90
14755;DHT22;7469;50.906;6.952;2023-04-24T14:04:34;15.20;99.90
14755;DHT22;7469;50.906;6.952;2023-04-24T14:07:02;15.10;99.90
14755;DHT22;7469;50.906;6.952;2023-04-24T14:09:31;15.10;99.90
14755;DHT22;7469;50.906;6.952;2023-04-24T14:11:59;15.10;99.90
14755;DHT22;7469;50.906;6.952;2023-04-24T14:14:29;15.10;99.90
14755;DHT22;7469;50.906;6.952;2023-04-24T14:16:57;15.20;99.90
14755;DHT22;7469;50.906;6.952;2023-04-24T14:19:26;15.20;99.90
14755;DHT22;7469;50.906;6.952;2023-04-24T14:21:54;15.20;99.90
14755;DHT22;7469;50.906;6.952;2023-04-24T14:24:24;15.10;99.90
14755;DHT22;7469;50.906;6.952;2023-04-24T14:26:52;15.10;99.90
14755;DHT22;7469;50.906;6.952;2023-04-24T14:29:22;15.10;99.90
14755;DHT22;7469;50.906;6.952;2023-04-24T14:31:52;15.10;99.90
14755;DHT22;7469;50.906;6.952;2023-04-24T14:34:20;15.10;99.90
14755;DHT22;7469;50.906;6.952;2023-04-24T14:36:48;15.30;99.90
14755;DHT22;7469;50.906;6.952;2023-04-24T14:39:16;15.50;99.90
14755;DHT22;7469;50.906;6.952;2023-04-24T14:41:44;15.70;99.90
14755;DHT22;7469;50.906;6.952;2023-04-24T14:44:12;15.80;99.90
14755;DHT22;7469;50.906;6.952;2023-04-24T14:46:40;15.90;99.90
14755;DHT22;7469;50.906;6.952;2023-04-24T14:49:09;16.00;99.90
14755;DHT22;7469;50.906;6.952;2023-04-24T14:51:39;16.10;99.90
14755;DHT22;7469;50.906;6.952;2023-04-24T14:54:07;16.20;99.90
14755;DHT22;7469;50.906;6.952;2023-04-24T14:56:35;16.30;99.90
14755;DHT22;7469;50.906;6.952;2023-04-24T14:59:04;16.30;99.90
14755;DHT22;7469;50.906;6.952;2023-04-24T15:01:31;16.20;99.90
14755;DHT22;7469;50.906;6.952;2023-04-24T15:03:59;16.20;99.90
14755;DHT22;7469;50.906;6.952;2023-04-24T15:06:30;16.20;99.90
14755;DHT22;7469;50.906;6.952;2023-04-24T15:08:58;16.20;99.90
14755;DHT22;7469;50.906;6.952;2023-04-24T15:11:26;16.20;99.90
14755;DHT22;7469;50.906;6.952;2023-04-24T15:13:55;16.10;99.90
14755;DHT22;7469;50.906;6.952;2023-04-24T15:16:23;16.00;99.90
14755;DHT22;7469;50.906;6.952;2023-04-24T15:18:51;15.90;99.90
14755;DHT22;7469;50.906;6.952;2023-04-24T15:21:20;15.90;99.90
14755;DHT22;7469;50.906;6.952;2023-04-24T15:23:49;15.80;99.90
14755;DHT22;7469;50.906;6.952;2023-04-24T15:26:18;15.60;99.90
14755;DHT22;7469;50.906;6.952;2023-04-24T15:28:46;15.60;99.90
14755;DHT22;7469;50.906;6.952;2023-04-24T15:31:14;15.50;99.90
14755;DHT22;7469;50.906;6.952;2023-04-24T15:33:42;15.50;99.90
14755;DHT22;7469;50.906;6.952;2023-04-24T15:36:11;15.50;99.90
14755;DHT22;7469;50.906;6.952;2023-04-24T15:38:38;15.50;99.90
14755;DHT22;7469;50.906;6.952;2023-04-24T15:41:09;15.50;99.90
14755;DHT22;7469;50.906;6.952;2023-04-24T15:43:37;15.50;99.90
14755;DHT22;7469;50.906;6.952;2023-04-24T15:46:07;15.60;99.90
14755;DHT22;7469;50.906;6.952;2023-04-24T15:48:35;15.60;99.90
14755;DHT22;7469;50.906;6.952;2023-04-24T15:51:05;15.60;99.90
14755;DHT22;7469;50.906;6.952;2023-04-24T15:53:34;15.70;99.90
14755;DHT22;7469;50.906;6.952;2023-04-24T15:56:03;15.70;99.90
14755;DHT22;7469;50.906;6.952;2023-04-24T15:58:32;15.80;99.90
14755;DHT22;7469;50.906;6.952;2023-04-24T16:01:00;15.70;99.90